To NAV CANADA Home Page Login to a new session Search on AWWS site Disclaimer Vers la page française équivalente Tips FAQ What's new on the site To the Forecasts and Observations / NOTAM section To "File a Flight Plan" website Publications and other links Update of the User's profile FIC Telephone Numbers My Weather Data Folder Route Weather Data Regional Weather Data Local Weather Data To the Forecasts and Observations / NOTAM section
Request Generated 03/19/2019 at 23:06:40 UTC . Weather information available at that time is displayed.

METAR/TAF

MEDICINE HAT/AB    (show WxCam)

METAR CYXH 192300Z 21011KT 30SM FEW270 12/03 A3016 RMK CI1 SLP235 DENSITY ALT 2400FT=
METAR CYXH 192200Z 21012KT 30SM FEW270 12/03 A3017 RMK CI1 SLP238=
METAR CYXH 192100Z 23011KT 30SM FEW270 11/03 A3018 RMK CI2 SLP242=

TAF CYXH 191738Z 1918/2006 22010KT P6SM SCT270
BECMG 1919/1921 30010KT
BECMG 2000/2002 VRB03KT
RMK NXT FCST BY 200000Z=
Your time UTC time
Weather data provided by Environment Canada and NAV CANADA